Time;durP1;ratioP1;P1;durP2;ratioP2;P2;SDS_P1;SDS_P2;PMS_P1;PMS_P2;Temp;Humidity;BMP_temperature;BMP_pressure;BME280_temperature;BME280_humidity;BME280_pressure;Samples;Min_cycle;Max_cycle;Signal;HPM_P1;HPM_P2
2022/08/11 00:00:11;;;;;;;5.90;3.40;;;;;;;19.88;63.31;101387.53;693101;28;1412;-46
2022/08/11 00:00:34;;;;;;;5.70;3.55;;;;;;;19.88;63.16;101384.88;692457;28;1245;-44
2022/08/11 00:00:56;;;;;;;5.40;3.40;;;;;;;19.85;62.88;101385.84;692025;28;4301;-43
2022/08/11 00:01:20;;;;;;;5.00;3.42;;;;;;;19.85;63.43;101387.66;692870;28;1312;-43
2022/08/11 00:01:49;;;;;;;5.35;3.50;;;;;;;19.84;63.08;101385.91;690234;28;1238;-45
2022/08/11 00:02:10;;;;;;;5.35;3.45;;;;;;;19.83;62.90;101385.03;690968;28;1166;-45
2022/08/11 00:02:35;;;;;;;6.60;3.45;;;;;;;19.83;63.02;101386.84;693010;28;1293;-45
2022/08/11 00:02:55;;;;;;;7.20;3.40;;;;;;;19.80;63.16;101378.97;693580;28;1266;-45
2022/08/11 00:03:18;;;;;;;5.43;3.23;;;;;;;19.78;63.19;101383.44;695332;28;1246;-43
2022/08/11 00:03:49;;;;;;;5.35;3.13;;;;;;;19.76;63.62;101387.91;697132;28;1164;-44
2022/08/11 00:04:11;;;;;;;4.40;3.20;;;;;;;19.76;63.21;101380.81;698014;28;4255;-47
2022/08/11 00:04:35;;;;;;;5.18;3.30;;;;;;;19.74;63.65;101382.63;698286;28;1341;-43
2022/08/11 00:05:02;;;;;;;4.88;3.50;;;;;;;19.70;63.51;101381.88;696405;28;1261;-46
2022/08/11 00:05:22;;;;;;;5.38;3.42;;;;;;;19.68;63.65;101377.53;695136;28;1314;-45
2022/08/11 00:05:50;;;;;;;5.87;3.63;;;;;;;19.67;63.74;101378.44;695233;28;1341;-45
2022/08/11 00:06:13;;;;;;;5.50;3.47;;;;;;;19.66;63.78;101380.25;695180;28;1910;-44
2022/08/11 00:06:35;;;;;;;5.97;3.35;;;;;;;19.65;64.11;101381.16;696252;28;871;-44
2022/08/11 00:07:02;;;;;;;4.63;3.30;;;;;;;19.68;64.00;101382.84;696693;28;4293;-43
2022/08/11 00:07:24;;;;;;;5.40;3.47;;;;;;;19.67;63.74;101378.44;698566;28;1205;-45
2022/08/11 00:07:53;;;;;;;5.78;3.35;;;;;;;19.63;64.03;101382.97;698383;28;1283;-44
2022/08/11 00:08:25;;;;;;;4.68;3.20;;;;;;;19.59;64.34;101381.34;697918;28;1364;-44
2022/08/11 00:08:49;;;;;;;4.80;3.63;;;;;;;19.57;64.21;101381.38;697573;28;1716;-43
2022/08/11 00:09:17;;;;;;;5.10;3.50;;;;;;;19.58;65.32;101379.63;698213;28;1139;-47
2022/08/11 00:09:38;;;;;;;4.93;3.50;;;;;;;19.54;64.54;101380.63;694651;28;1991;-43
2022/08/11 00:10:00;;;;;;;6.10;3.33;;;;;;;19.51;65.01;101376.28;695173;28;4285;-44
2022/08/11 00:10:23;;;;;;;5.57;3.40;;;;;;;19.51;64.58;101383.38;694922;28;1082;-44
2022/08/11 00:10:52;;;;;;;5.85;3.70;;;;;;;19.54;64.54;101380.63;695553;28;1321;-43
2022/08/11 00:11:12;;;;;;;5.82;3.60;;;;;;;19.54;64.19;101380.63;695969;28;1174;-44
2022/08/11 00:11:35;;;;;;;4.93;3.60;;;;;;;19.53;64.18;101381.53;695127;28;1238;-43
2022/08/11 00:11:57;;;;;;;4.88;3.40;;;;;;;19.50;64.22;101384.28;695574;28;1249;-43
2022/08/11 00:12:18;;;;;;;5.18;3.35;;;;;;;19.49;64.29;101383.41;695178;28;1393;-45
2022/08/11 00:12:41;;;;;;;5.80;3.70;;;;;;;19.48;64.19;101378.16;695467;28;1327;-45
2022/08/11 00:13:04;;;;;;;6.32;3.63;;;;;;;19.47;64.20;101379.09;693969;28;4368;-44
2022/08/11 00:13:45;;;;;;;4.47;3.28;;;;;;;19.45;64.12;101379.09;697073;28;1321;-45
2022/08/11 00:14:23;;;;;;;5.80;3.53;;;;;;;19.42;64.12;101375.69;695164;28;1329;-45
2022/08/11 00:14:49;;;;;;;6.18;3.60;;;;;;;19.42;64.22;101381.00;695700;28;1244;-44
2022/08/11 00:15:10;;;;;;;5.53;3.20;;;;;;;19.41;64.35;101380.13;692472;28;1531;-45
2022/08/11 00:15:46;;;;;;;6.10;3.20;;;;;;;19.40;64.39;101379.25;690437;28;1251;-44
2022/08/11 00:16:23;;;;;;;6.32;3.60;;;;;;;19.44;64.38;101376.50;692034;28;4651;-43
2022/08/11 00:17:00;;;;;;;4.75;3.40;;;;;;;19.41;66.20;101372.16;693179;28;1416;-45
2022/08/11 00:17:26;;;;;;;5.00;3.50;;;;;;;19.42;64.77;101376.56;696681;28;1118;-44
2022/08/11 00:17:48;;;;;;;5.37;3.47;;;;;;;19.42;65.97;101378.34;695867;28;1478;-44
2022/08/11 00:18:10;;;;;;;4.97;3.45;;;;;;;19.40;64.84;101376.59;695811;28;1519;-48
2022/08/11 00:18:59;;;;;;;4.68;3.60;;;;;;;19.37;64.67;101379.34;695281;28;919;-44
2022/08/11 00:19:23;;;;;;;5.07;3.42;;;;;;;19.36;64.39;101376.75;694552;28;5297;-45
2022/08/11 00:19:47;;;;;;;5.13;3.30;;;;;;;19.36;64.39;101377.63;697921;28;1360;-44
2022/08/11 00:20:11;;;;;;;5.68;3.53;;;;;;;19.38;65.82;101378.44;697879;28;1459;-46
2022/08/11 00:20:34;;;;;;;5.43;3.80;;;;;;;19.38;64.84;101381.09;698635;28;1564;-46
2022/08/11 00:20:59;;;;;;;5.63;3.70;;;;;;;19.35;64.79;101381.16;697784;28;1233;-45
2022/08/11 00:21:21;;;;;;;5.07;3.60;;;;;;;19.33;65.14;101377.72;694929;28;1226;-46
2022/08/11 00:21:42;;;;;;;7.00;3.75;;;;;;;19.33;65.02;101372.41;695173;28;1418;-45
2022/08/11 00:22:05;;;;;;;6.53;3.70;;;;;;;19.33;64.72;101383.00;694734;28;4576;-44
2022/08/11 00:22:28;;;;;;;6.30;3.70;;;;;;;19.33;64.62;101382.16;695312;28;1442;-44
2022/08/11 00:22:49;;;;;;;5.70;3.80;;;;;;;19.35;65.65;101375.88;695255;28;1155;-44
2022/08/11 00:23:13;;;;;;;5.43;3.88;;;;;;;19.35;65.50;101377.66;696306;28;1249;-44
2022/08/11 00:23:40;;;;;;;7.30;3.75;;;;;;;19.30;64.99;101376.94;699002;28;1266;-44
2022/08/11 00:24:02;;;;;;;5.70;3.83;;;;;;;19.30;65.52;101377.81;698441;28;1222;-45
2022/08/11 00:24:23;;;;;;;5.82;3.90;;;;;;;19.30;65.02;101377.81;699088;28;1315;-45
2022/08/11 00:24:44;;;;;;;5.40;3.60;;;;;;;19.27;64.92;101374.38;698115;28;1281;-44
2022/08/11 00:25:19;;;;;;;5.17;3.50;;;;;;;19.23;65.11;101376.22;697674;28;4366;-44
2022/08/11 00:25:47;;;;;;;6.32;3.70;;;;;;;19.22;65.31;101374.53;697703;28;1351;-45
2022/08/11 00:26:09;;;;;;;7.47;3.55;;;;;;;19.22;65.14;101377.16;698259;28;1914;-45
2022/08/11 00:26:31;;;;;;;6.30;3.72;;;;;;;19.24;65.36;101377.97;698668;28;1232;-44
2022/08/11 00:26:53;;;;;;;5.63;3.63;;;;;;;19.21;65.52;101373.63;695710;28;2011;-45
2022/08/11 00:27:13;;;;;;;5.78;3.78;;;;;;;19.19;64.86;101371.94;691310;28;1238;-44
2022/08/11 00:27:35;;;;;;;6.40;3.70;;;;;;;19.19;65.60;101377.22;690700;28;1367;-45
2022/08/11 00:27:56;;;;;;;5.57;3.45;;;;;;;19.21;65.79;101375.44;689538;28;4365;-44
2022/08/11 00:28:25;;;;;;;5.93;3.60;;;;;;;19.20;66.59;101371.03;690305;28;1096;-44
2022/08/11 00:28:46;;;;;;;5.43;3.60;;;;;;;19.17;65.69;101373.78;692212;28;1298;-43
2022/08/11 00:29:10;;;;;;;7.13;3.60;;;;;;;19.18;65.47;101371.06;692582;28;1439;-43
2022/08/11 00:29:32;;;;;;;6.70;3.90;;;;;;;19.17;65.07;101376.44;692578;28;1127;-43
2022/08/11 00:29:53;;;;;;;7.50;3.97;;;;;;;19.13;65.29;101377.44;693261;28;1190;-44
2022/08/11 00:30:17;;;;;;;6.20;3.60;;;;;;;19.12;65.19;101375.69;692703;28;1071;-44
2022/08/11 00:30:39;;;;;;;5.00;3.47;;;;;;;19.12;64.93;101376.56;693557;28;1308;-45
2022/08/11 00:31:09;;;;;;;6.45;3.75;;;;;;;19.13;65.00;101364.19;696012;28;4310;-44
2022/08/11 00:31:31;;;;;;;5.82;3.50;;;;;;;19.14;65.40;101371.22;694911;28;1422;-45
2022/08/11 00:31:53;;;;;;;5.10;3.60;;;;;;;19.14;65.08;101371.22;696005;28;1238;-45
2022/08/11 00:32:14;;;;;;;5.07;3.53;;;;;;;19.14;64.96;101376.53;695944;28;1066;-44
2022/08/11 00:32:37;;;;;;;5.70;3.73;;;;;;;19.14;64.70;101372.09;695683;28;1234;-43
2022/08/11 00:32:58;;;;;;;6.00;3.88;;;;;;;19.14;64.75;101372.09;696135;28;1286;-44
2022/08/11 00:33:25;;;;;;;5.88;3.85;;;;;;;19.13;65.17;101369.47;695599;28;944;-44
2022/08/11 00:33:46;;;;;;;5.70;3.92;;;;;;;19.11;65.09;101372.19;692948;28;1392;-46
2022/08/11 00:34:11;;;;;;;5.22;3.67;;;;;;;19.12;65.11;101373.94;692134;28;4520;-44
2022/08/11 00:34:35;;;;;;;5.80;3.63;;;;;;;19.10;65.27;101369.56;690989;28;1402;-44
2022/08/11 00:34:57;;;;;;;5.47;3.60;;;;;;;19.11;65.36;101371.31;692561;28;1278;-44
2022/08/11 00:35:25;;;;;;;4.93;3.65;;;;;;;19.13;65.59;101370.34;692408;28;1107;-44
2022/08/11 00:35:47;;;;;;;5.43;3.80;;;;;;;19.10;65.10;101373.09;695429;28;1273;-45
2022/08/11 00:36:10;;;;;;;6.45;3.88;;;;;;;19.08;65.37;101371.38;695067;28;1321;-44
2022/08/11 00:37:05;;;;;;;6.10;3.75;;;;;;;19.03;65.15;101369.75;694974;28;1275;-44
2022/08/11 00:37:26;;;;;;;6.13;3.72;;;;;;;19.05;65.31;101367.03;686285;28;4787;-44
2022/08/11 00:37:50;;;;;;;6.15;3.80;;;;;;;19.05;65.30;101365.28;687298;28;1405;-45
2022/08/11 00:38:12;;;;;;;5.15;3.70;;;;;;;19.05;66.41;101369.69;686769;28;1326;-44
2022/08/11 00:38:36;;;;;;;6.30;3.65;;;;;;;19.08;65.43;101366.97;693907;28;1241;-44
2022/08/11 00:39:04;;;;;;;6.25;4.10;;;;;;;19.09;65.99;101368.69;698227;28;4970;-45
2022/08/11 00:39:26;;;;;;;6.75;3.80;;;;;;;19.10;65.20;101372.22;698466;28;1145;-44
2022/08/11 00:39:51;;;;;;;6.55;4.07;;;;;;;19.10;64.75;101369.56;698266;28;1198;-45
2022/08/11 00:40:21;;;;;;;5.28;3.80;;;;;;;19.11;65.02;101371.31;697206;28;4434;-44
2022/08/11 00:40:58;;;;;;;5.78;3.80;;;;;;;19.12;65.02;101367.75;697731;28;1326;-45
2022/08/11 00:41:33;;;;;;;5.45;3.88;;;;;;;19.09;65.33;101365.19;698172;28;1184;-44
2022/08/11 00:42:09;;;;;;;6.22;3.92;;;;;;;19.09;65.76;101368.69;698549;28;978;-44
2022/08/11 00:42:53;;;;;;;5.22;3.72;;;;;;;19.04;65.58;101366.19;698786;28;1130;-44
2022/08/11 00:43:48;;;;;;;6.43;3.90;;;;;;;19.01;66.84;101360.97;697349;28;4892;-46
2022/08/11 00:44:21;;;;;;;7.03;3.92;;;;;;;19.01;65.08;101366.28;698597;28;985;-44
2022/08/11 00:44:55;;;;;;;9.55;4.10;;;;;;;18.99;66.10;101365.44;696944;28;1327;-45
2022/08/11 00:45:38;;;;;;;5.95;3.85;;;;;;;19.00;65.58;101361.03;697132;28;1146;-45
2022/08/11 00:46:29;;;;;;;5.35;3.90;;;;;;;19.01;65.28;101360.97;698173;28;4273;-45
2022/08/11 00:47:14;;;;;;;7.80;4.30;;;;;;;18.98;65.32;101365.50;696811;28;1111;-43
2022/08/11 00:48:06;;;;;;;5.43;4.28;;;;;;;18.95;67.37;101366.44;697338;28;1343;-43
2022/08/11 00:48:56;;;;;;;5.47;4.00;;;;;;;18.97;65.47;101361.09;692549;28;1405;-43
2022/08/11 00:49:47;;;;;;;6.82;4.05;;;;;;;18.97;64.71;101359.34;691681;28;6375;-44
2022/08/11 00:50:55;;;;;;;6.22;4.15;;;;;;;19.01;65.12;101366.28;690639;28;1524;-46
2022/08/11 00:51:48;;;;;;;5.80;4.43;;;;;;;18.99;66.08;101362.78;684607;28;1188;-44
2022/08/11 00:52:54;;;;;;;5.85;4.22;;;;;;;19.00;65.16;101364.53;675171;29;4748;-44
2022/08/11 00:53:30;;;;;;;6.00;4.53;;;;;;;18.99;64.95;101362.78;690384;28;1278;-45
2022/08/11 00:54:19;;;;;;;7.75;4.63;;;;;;;18.98;65.24;101363.72;695741;28;1135;-46
2022/08/11 00:54:43;;;;;;;5.95;4.47;;;;;;;18.98;64.63;101365.50;698065;28;1075;-45
2022/08/11 00:55:38;;;;;;;6.32;4.55;;;;;;;18.96;66.56;101362.88;697583;28;4355;-46
2022/08/11 00:56:16;;;;;;;6.28;4.20;;;;;;;18.97;65.43;101363.75;697065;28;1253;-45
2022/08/11 00:57:14;;;;;;;5.18;4.40;;;;;;;18.98;65.28;101366.38;698214;28;1226;-44
2022/08/11 00:57:43;;;;;;;5.47;4.35;;;;;;;18.97;65.11;101361.09;697977;28;1218;-45
2022/08/11 00:58:26;;;;;;;7.30;4.80;;;;;;;18.96;64.44;101362.88;694073;28;4347;-45
2022/08/11 00:58:52;;;;;;;6.10;4.65;;;;;;;18.96;63.85;101362.03;687353;28;1480;-46
2022/08/11 01:00:00;;;;;;;7.28;4.80;;;;;;;18.96;64.29;101362.88;687678;28;1213;-44
2022/08/11 01:00:23;;;;;;;7.70;4.72;;;;;;;19.01;63.34;101363.63;698951;28;1441;-43
2022/08/11 01:01:15;;;;;;;6.97;4.75;;;;;;;19.02;64.33;101367.13;696883;28;1372;-44
2022/08/11 01:01:36;;;;;;;6.35;4.65;;;;;;;19.02;64.11;101364.50;688354;28;5228;-44
2022/08/11 01:02:31;;;;;;;6.93;4.90;;;;;;;19.00;63.29;101359.22;688018;28;1437;-48
2022/08/11 01:03:12;;;;;;;6.22;4.82;;;;;;;19.01;64.08;101357.44;684501;28;1397;-47
2022/08/11 01:04:17;;;;;;;7.20;5.07;;;;;;;19.03;63.31;101361.78;695479;28;1254;-44
2022/08/11 01:04:56;;;;;;;6.85;5.25;;;;;;;19.01;64.03;101366.28;686487;28;5216;-43
2022/08/11 01:05:44;;;;;;;7.20;5.00;;;;;;;19.01;64.58;101366.28;688836;28;1199;-45
2022/08/11 01:06:10;;;;;;;8.63;5.30;;;;;;;19.02;64.17;101367.13;695116;28;1902;-45
2022/08/11 01:06:48;;;;;;;7.65;5.05;;;;;;;19.01;63.95;101366.28;696157;28;1301;-44
2022/08/11 01:07:29;;;;;;;6.90;5.32;;;;;;;19.01;62.04;101366.28;695239;28;4354;-44
2022/08/11 01:08:13;;;;;;;6.78;5.20;;;;;;;19.03;63.71;101361.78;696249;28;1378;-46
2022/08/11 01:09:09;;;;;;;6.50;5.13;;;;;;;19.05;64.07;101365.28;698622;28;1156;-45
2022/08/11 01:09:57;;;;;;;6.97;5.50;;;;;;;19.07;64.25;101364.38;686520;28;1384;-46
2022/08/11 01:10:51;;;;;;;7.25;5.13;;;;;;;19.07;62.93;101367.03;692010;28;4780;-45
2022/08/11 01:11:37;;;;;;;6.55;4.97;;;;;;;19.03;63.19;101361.78;698758;28;1017;-46
2022/08/11 01:12:06;;;;;;;7.75;5.28;;;;;;;19.04;63.51;101360.88;698692;28;1261;-45
2022/08/11 01:12:51;;;;;;;7.78;5.13;;;;;;;19.11;62.14;101366.03;699173;28;1479;-43
2022/08/11 01:13:21;;;;;;;6.70;5.50;;;;;;;19.10;63.64;101358.97;697515;28;4370;-44
2022/08/11 01:13:45;;;;;;;8.18;5.43;;;;;;;19.11;64.79;101361.59;698266;28;1229;-44
2022/08/11 01:14:27;;;;;;;7.32;5.45;;;;;;;19.17;64.88;101363.19;698123;28;1361;-45
2022/08/11 01:15:25;;;;;;;8.60;5.57;;;;;;;19.15;62.92;101355.28;699399;28;1245;-45
2022/08/11 01:16:04;;;;;;;6.47;5.20;;;;;;;19.14;61.62;101365.94;697713;28;1245;-44
2022/08/11 01:16:46;;;;;;;7.57;5.60;;;;;;;19.15;61.46;101362.34;697428;28;5375;-46
2022/08/11 01:17:25;;;;;;;7.32;5.55;;;;;;;19.18;61.93;101368.44;697320;28;1245;-44
2022/08/11 01:18:11;;;;;;;6.97;5.25;;;;;;;19.21;61.95;101367.47;698253;28;1403;-44
2022/08/11 01:18:32;;;;;;;6.65;5.35;;;;;;;19.20;61.95;101360.44;694682;28;1880;-44
2022/08/11 01:19:18;;;;;;;7.85;5.30;;;;;;;19.19;61.39;101363.97;697979;28;1231;-44
2022/08/11 01:20:01;;;;;;;8.73;5.90;;;;;;;19.20;62.16;101360.44;697896;28;4733;-44
2022/08/11 01:20:36;;;;;;;7.70;5.28;;;;;;;19.18;62.33;101357.81;698574;28;1474;-43
2022/08/11 01:21:14;;;;;;;7.47;5.50;;;;;;;19.21;61.15;101359.53;698139;28;1313;-45
2022/08/11 01:22:18;;;;;;;7.00;5.40;;;;;;;19.21;61.08;101363.03;697871;28;1288;-43
2022/08/11 01:22:51;;;;;;;8.98;5.72;;;;;;;19.30;62.00;101361.91;696905;28;4710;-46
2022/08/11 01:23:33;;;;;;;8.20;5.55;;;;;;;19.56;59.52;101363.75;695689;28;1106;-44
2022/08/11 01:24:31;;;;;;;8.25;5.95;;;;;;;19.54;60.04;101356.75;695345;28;1348;-45
2022/08/11 01:25:30;;;;;;;8.55;5.80;;;;;;;19.53;61.10;101357.66;693357;28;1700;-44
2022/08/11 01:25:51;;;;;;;8.48;5.70;;;;;;;19.51;60.56;101360.38;694520;28;6191;-44
2022/08/11 01:27:01;;;;;;;9.40;5.70;;;;;;;19.62;60.94;101357.38;695605;28;1961;-47
2022/08/11 01:27:55;;;;;;;7.70;5.55;;;;;;;19.68;59.08;101362.50;695051;28;1103;-44
2022/08/11 01:28:36;;;;;;;8.05;5.75;;;;;;;19.75;58.45;101363.16;698111;28;1265;-45
2022/08/11 01:29:32;;;;;;;8.32;5.60;;;;;;;19.78;57.80;101362.19;698128;28;1154;-47
2022/08/11 01:29:58;;;;;;;7.78;5.50;;;;;;;19.76;59.36;101364.03;695203;28;1028;-44
2022/08/11 01:30:38;;;;;;;6.72;5.28;;;;;;;19.73;59.88;101362.38;692526;28;1051;-43
2022/08/11 01:31:42;;;;;;;7.68;5.70;;;;;;;19.72;59.07;101357.97;691818;28;4706;-43
2022/08/11 01:32:28;;;;;;;7.90;5.60;;;;;;;19.73;58.38;101362.38;686148;28;1377;-44
2022/08/11 01:33:22;;;;;;;7.45;5.50;;;;;;;19.72;58.77;101356.16;698166;28;1416;-44
2022/08/11 01:34:19;;;;;;;7.47;5.38;;;;;;;19.70;58.10;101363.31;699220;28;1094;-45
2022/08/11 01:35:19;;;;;;;7.50;5.40;;;;;;;19.71;58.62;101370.34;697864;28;5067;-44
2022/08/11 01:36:08;;;;;;;8.38;5.55;;;;;;;19.72;59.31;101368.56;697850;28;1213;-43
2022/08/11 01:36:31;;;;;;;7.43;5.70;;;;;;;19.70;59.24;101365.09;698649;28;785;-43
2022/08/11 01:37:13;;;;;;;6.85;5.40;;;;;;;19.66;58.53;101358.16;697250;28;1458;-44
2022/08/11 01:37:39;;;;;;;6.90;5.25;;;;;;;19.65;58.27;101361.75;697605;28;4838;-44
2022/08/11 01:38:37;;;;;;;7.90;5.50;;;;;;;19.67;59.23;101355.44;698024;28;1249;-44
2022/08/11 01:39:20;;;;;;;8.10;5.30;;;;;;;19.73;58.60;101362.38;697708;28;5010;-45
2022/08/11 01:40:17;;;;;;;6.95;5.50;;;;;;;19.73;58.79;101362.38;698481;28;1280;-46
2022/08/11 01:40:52;;;;;;;6.80;5.18;;;;;;;19.72;57.98;101361.47;697115;28;4959;-44
2022/08/11 01:44:36;;;;;;;7.60;5.28;;;;;;;19.73;57.76;101357.06;696956;28;1043;-45
2022/08/11 01:44:57;;;;;;;7.78;5.40;;;;;;;19.78;57.98;101362.19;695590;28;1625;-43
2022/08/11 01:45:45;;;;;;;8.40;5.38;;;;;;;19.79;57.42;101356.84;695434;28;1267;-43
2022/08/11 01:46:20;;;;;;;7.95;5.43;;;;;;;19.78;58.93;101362.19;697956;28;4375;-43
2022/08/11 01:46:53;;;;;;;7.28;5.15;;;;;;;19.77;58.35;101355.16;698763;28;1047;-43
2022/08/11 01:48:15;;;;;;;7.03;5.45;;;;;;;19.83;58.33;101355.84;699213;28;1221;-43
2022/08/11 01:48:39;;;;;;;7.05;5.05;;;;;;;19.94;58.96;101352.88;698148;28;1075;-43
2022/08/11 01:49:14;;;;;;;7.50;4.90;;;;;;;19.95;57.22;101354.59;697782;28;4530;-46
2022/08/11 01:49:46;;;;;;;8.05;5.38;;;;;;;19.96;56.55;101355.47;700784;28;1413;-44
2022/08/11 01:50:25;;;;;;;8.20;4.97;;;;;;;19.97;56.77;101355.41;698942;28;1094;-44
2022/08/11 01:50:53;;;;;;;6.53;5.20;;;;;;;19.96;56.92;101350.16;696673;28;1304;-46
2022/08/11 01:51:16;;;;;;;7.22;5.15;;;;;;;20.03;58.16;101352.53;695283;28;1022;-44
2022/08/11 01:52:00;;;;;;;7.85;4.93;;;;;;;19.98;56.56;101343.88;695522;28;1277;-44
2022/08/11 01:52:33;;;;;;;7.10;4.90;;;;;;;20.02;56.77;101341.97;692336;28;4784;-43
2022/08/11 01:53:12;;;;;;;7.85;4.95;;;;;;;20.05;57.17;101350.72;694758;28;1292;-47
2022/08/11 01:53:41;;;;;;;8.73;5.20;;;;;;;20.04;56.73;101348.13;695394;28;1353;-45
2022/08/11 01:54:02;;;;;;;7.00;5.10;;;;;;;20.05;56.57;101349.84;696062;28;1226;-44
2022/08/11 01:55:06;;;;;;;7.10;5.00;;;;;;;20.09;56.00;101346.19;698155;28;1258;-46
2022/08/11 01:55:36;;;;;;;6.65;5.10;;;;;;;20.08;56.56;101350.59;681341;28;4878;-44
2022/08/11 01:56:20;;;;;;;7.32;4.57;;;;;;;20.07;56.50;101346.19;682242;28;1309;-44
2022/08/11 01:57:15;;;;;;;6.72;4.60;;;;;;;20.12;57.12;101347.84;682803;28;1101;-44
2022/08/11 01:57:52;;;;;;;7.30;5.10;;;;;;;20.12;56.14;101350.50;683033;28;1104;-45
2022/08/11 01:58:25;;;;;;;8.23;5.10;;;;;;;20.10;56.09;101344.38;682085;28;4328;-45
2022/08/11 01:59:23;;;;;;;6.70;4.93;;;;;;;20.14;56.10;101346.88;682587;28;1295;-45
2022/08/11 01:59:53;;;;;;;7.10;4.78;;;;;;;20.10;56.54;101352.34;683481;28;1228;-44
2022/08/11 02:00:21;;;;;;;7.03;4.80;;;;;;;20.11;56.49;101349.63;681216;28;1176;-44
2022/08/11 02:00:56;;;;;;;6.75;4.63;;;;;;;20.15;57.02;101342.44;682138;28;1070;-44
2022/08/11 02:01:26;;;;;;;6.40;4.93;;;;;;;20.14;57.48;101352.19;683563;28;5288;-46
2022/08/11 02:03:52;;;;;;;7.35;4.93;;;;;;;20.21;55.68;101344.88;696821;28;1278;-45
2022/08/11 02:04:38;;;;;;;6.65;4.63;;;;;;;20.21;55.91;101350.19;688857;28;4230;-44
2022/08/11 02:05:16;;;;;;;9.30;4.95;;;;;;;20.19;55.67;101344.09;697974;28;1075;-45
2022/08/11 02:06:53;;;;;;;6.20;4.40;;;;;;;20.18;56.43;101345.84;698359;28;1362;-44
2022/08/11 02:06:54;;;;;;;7.70;4.95;;;;;;;20.15;56.32;101345.97;697615;28;1312;-44
2022/08/11 02:07:44;;;;;;;6.22;4.55;;;;;;;20.15;56.18;101355.72;693202;28;5464;-44
2022/08/11 02:08:20;;;;;;;8.82;4.70;;;;;;;20.20;55.61;101353.75;694681;28;1413;-46
2022/08/11 02:08:57;;;;;;;7.72;4.80;;;;;;;20.18;56.00;101358.25;695061;28;1183;-45
2022/08/11 02:09:36;;;;;;;5.72;4.50;;;;;;;20.16;56.65;101352.13;697710;28;1057;-45
2022/08/11 02:11:30;;;;;;;9.20;4.70;;;;;;;20.24;54.97;101355.38;698119;28;1358;-45
2022/08/11 02:11:57;;;;;;;8.60;4.93;;;;;;;20.29;56.20;101349.94;697552;28;1105;-43
2022/08/11 02:12:26;;;;;;;7.15;4.60;;;;;;;20.30;55.61;101352.53;697608;28;940;-45
2022/08/11 02:12:59;;;;;;;7.45;4.78;;;;;;;20.28;55.97;101354.34;699553;28;1205;-45
2022/08/11 02:13:31;;;;;;;5.82;4.50;;;;;;;20.24;56.17;101353.63;694604;28;6227;-44
2022/08/11 02:14:01;;;;;;;6.68;4.50;;;;;;;20.19;55.61;101352.91;694458;28;1221;-45
2022/08/11 02:14:44;;;;;;;6.10;4.50;;;;;;;20.16;55.45;101358.31;695310;28;1332;-44
2022/08/11 02:15:19;;;;;;;7.57;4.93;;;;;;;20.14;55.28;101354.84;696045;28;1209;-43
2022/08/11 02:15:51;;;;;;;6.63;4.50;;;;;;;20.10;55.17;101358.50;697674;28;1355;-43
2022/08/11 02:16:25;;;;;;;6.15;4.30;;;;;;;20.11;55.67;101348.78;698016;28;4476;-44
2022/08/11 02:17:26;;;;;;;6.15;4.35;;;;;;;20.10;55.50;101352.34;699226;28;1187;-43
2022/08/11 02:17:56;;;;;;;6.18;4.40;;;;;;;20.05;55.18;101356.03;692381;28;1293;-45
2022/08/11 02:23:53;;;;;;;7.97;4.20;;;;;;;19.99;57.15;101360.66;698579;28;1256;-43
2022/08/11 02:24:26;;;;;;;6.10;4.30;;;;;;;19.95;56.55;101359.03;698181;28;970;-45
2022/08/11 02:24:58;;;;;;;5.88;4.30;;;;;;;19.95;56.68;101361.69;698866;28;1237;-45
2022/08/11 04:08:32;;;;;;;6.93;5.05;;;;;;;16.66;76.43;101371.72;697888;28;5136;-44
2022/08/11 04:09:29;;;;;;;5.68;4.70;;;;;;;16.69;77.36;101370.81;697898;28;1158;-47
2022/08/11 04:10:46;;;;;;;7.43;4.88;;;;;;;16.62;78.26;101366.53;698495;28;1296;-45
2022/08/11 04:11:35;;;;;;;8.18;4.60;;;;;;;16.64;76.92;101362.97;688882;28;4860;-43
2022/08/11 04:12:08;;;;;;;6.72;4.75;;;;;;;16.67;76.31;101365.56;690187;28;1017;-45
2022/08/11 04:12:34;;;;;;;7.07;4.60;;;;;;;16.68;75.89;101364.66;689285;28;1143;-44
2022/08/11 04:13:30;;;;;;;6.10;4.60;;;;;;;16.54;78.08;101366.66;690096;28;1138;-43
2022/08/11 04:16:44;;;;;;;7.35;4.90;;;;;;;16.52;77.78;101366.69;689795;28;1115;-43
2022/08/11 04:17:25;;;;;;;6.93;4.70;;;;;;;16.49;76.89;101361.50;691997;28;5195;-46
2022/08/11 04:18:00;;;;;;;5.47;4.70;;;;;;;16.59;77.10;101367.47;698117;28;1254;-43
2022/08/11 04:18:28;;;;;;;6.00;4.60;;;;;;;16.60;77.01;101371.84;697768;28;1008;-43
2022/08/11 04:19:08;;;;;;;6.72;4.90;;;;;;;16.58;76.88;101365.72;699860;28;964;-43
2022/08/11 04:19:50;;;;;;;6.53;4.82;;;;;;;16.58;76.48;101367.50;696275;28;1083;-44
2022/08/11 04:20:35;;;;;;;7.35;4.75;;;;;;;16.61;76.65;101365.66;694952;28;1290;-43
2022/08/11 04:21:06;;;;;;;6.30;4.70;;;;;;;16.50;78.07;101380.81;695838;28;1103;-46
2022/08/11 04:21:45;;;;;;;6.20;4.93;;;;;;;16.54;77.54;101369.31;698141;28;1210;-43
2022/08/11 04:22:20;;;;;;;6.13;5.00;;;;;;;16.57;78.86;101366.59;698586;28;1467;-44
2022/08/11 04:23:20;;;;;;;6.43;4.88;;;;;;;16.57;77.47;101366.59;697624;28;5336;-44
2022/08/11 04:24:07;;;;;;;5.53;4.70;;;;;;;16.59;76.72;101369.25;687927;28;1477;-45
2022/08/11 04:24:52;;;;;;;7.43;5.00;;;;;;;16.47;78.81;101370.31;699045;28;1405;-44
2022/08/11 04:25:16;;;;;;;6.90;4.80;;;;;;;16.46;78.31;101373.84;698383;28;1138;-47
2022/08/11 04:25:52;;;;;;;6.32;4.93;;;;;;;16.47;78.10;101372.97;697737;28;4812;-43
2022/08/11 04:26:36;;;;;;;6.95;4.85;;;;;;;16.49;77.86;101377.31;697152;28;1909;-46
2022/08/11 04:27:17;;;;;;;6.85;4.70;;;;;;;16.39;79.21;101375.72;697676;28;1348;-44
2022/08/11 04:27:52;;;;;;;6.70;4.78;;;;;;;16.37;79.31;101374.91;699350;28;1383;-45
2022/08/11 04:28:34;;;;;;;5.75;4.65;;;;;;;16.41;78.47;101376.59;695959;28;1526;-43
2022/08/11 04:29:24;;;;;;;5.68;4.63;;;;;;;16.52;78.02;101374.63;694048;28;4945;-43
2022/08/11 04:30:03;;;;;;;6.63;4.90;;;;;;;16.51;78.26;101372.00;695506;28;1154;-47
2022/08/11 04:30:47;;;;;;;6.55;4.90;;;;;;;16.43;79.35;101372.13;698943;28;1121;-44
2022/08/11 04:31:36;;;;;;;6.53;4.60;;;;;;;16.44;78.13;101370.38;698214;28;1106;-43
2022/08/11 04:32:27;;;;;;;7.72;4.75;;;;;;;16.36;79.69;101381.06;697091;28;4877;-45
2022/08/11 04:33:30;;;;;;;6.53;4.80;;;;;;;16.34;79.64;101375.81;698142;28;1249;-45
2022/08/11 04:34:21;;;;;;;6.82;5.10;;;;;;;16.30;80.65;101379.41;698273;28;2074;-44
2022/08/11 04:35:03;;;;;;;5.68;4.68;;;;;;;16.32;79.46;101380.28;697067;28;4710;-46
2022/08/11 04:35:48;;;;;;;8.38;4.72;;;;;;;16.31;79.03;101367.97;699015;28;5076;-46
2022/08/11 04:37:31;;;;;;;5.90;4.70;;;;;;;16.28;80.75;101369.78;698110;28;1121;-45
2022/08/11 04:37:33;;;;;;;7.15;4.60;;;;;;;16.28;79.96;101378.59;699624;28;859;-46
2022/08/11 04:37:53;;;;;;;6.10;4.72;;;;;;;16.23;81.23;101380.41;697608;28;5967;-44
2022/08/11 04:38:41;;;;;;;6.70;4.83;;;;;;;16.28;79.96;101373.31;698153;28;1328;-45
2022/08/11 04:39:39;;;;;;;6.50;4.75;;;;;;;16.24;80.22;101374.25;695506;28;4986;-45
2022/08/11 04:40:02;;;;;;;6.75;5.13;;;;;;;16.12;81.93;101377.09;694825;28;1198;-44
2022/08/11 04:40:53;;;;;;;6.78;5.18;;;;;;;16.15;80.48;101369.97;694479;28;4534;-46
2022/08/11 04:41:32;;;;;;;6.30;4.90;;;;;;;16.20;79.96;101362.00;698239;28;1138;-45
2022/08/11 04:43:55;;;;;;;7.05;4.80;;;;;;;16.23;80.07;101377.78;694796;28;4503;-45
2022/08/11 04:44:44;;;;;;;7.00;5.00;;;;;;;16.24;80.87;101374.25;695356;28;1290;-45
2022/08/11 04:45:09;;;;;;;6.20;4.80;;;;;;;16.27;79.90;101371.56;695449;28;1189;-45
2022/08/11 04:45:40;;;;;;;7.07;5.15;;;;;;;16.32;79.91;101375.00;698139;28;1225;-46
2022/08/11 04:46:32;;;;;;;7.70;4.90;;;;;;;16.30;80.66;101374.13;698287;28;1213;-45
2022/08/11 05:01:40;;;;;;;7.72;5.18;;;;;;;16.17;82.25;101383.13;691057;28;4525;-44
2022/08/11 05:02:25;;;;;;;12.98;5.50;;;;;;;16.14;82.92;101384.09;692144;28;1051;-46
2022/08/11 05:03:05;;;;;;;10.25;5.38;;;;;;;16.12;82.41;101380.59;696240;28;1032;-45
2022/08/11 05:03:49;;;;;;;6.70;5.15;;;;;;;16.15;81.38;101380.53;695735;28;1063;-45
2022/08/11 05:05:30;;;;;;;7.43;5.07;;;;;;;16.18;81.05;101384.88;694783;28;4863;-46
2022/08/11 05:06:23;;;;;;;20.25;5.80;;;;;;;16.20;81.34;101374.31;697083;28;2062;-45
2022/08/11 05:07:07;;;;;;;8.32;5.10;;;;;;;16.19;82.23;101386.63;698279;28;986;-45